createdAt,value
2022-10-03T00:18:31.756Z,20.4
2022-10-03T00:48:31.710Z,20.4
2022-10-03T01:18:31.739Z,20.3
2022-10-03T01:48:31.767Z,20.3
2022-10-03T02:18:31.398Z,20.3
2022-10-03T02:48:31.626Z,20.2
2022-10-03T03:18:31.643Z,20.1
2022-10-03T03:48:31.561Z,20.1
2022-10-03T04:18:31.560Z,20.1
2022-10-03T04:48:31.639Z,20.0
2022-10-03T05:18:31.547Z,20.0
2022-10-03T05:48:31.624Z,19.9
2022-10-03T06:18:31.576Z,19.9
2022-10-03T06:48:31.563Z,19.9
2022-10-03T07:18:31.543Z,19.9
2022-10-03T07:48:31.541Z,20.0
2022-10-03T08:18:31.536Z,20.1
2022-10-03T08:48:31.569Z,21.0
2022-10-03T09:18:31.582Z,21.0
2022-10-03T09:48:31.560Z,21.0
2022-10-03T10:18:31.558Z,20.9
2022-10-03T10:48:31.551Z,20.8
2022-10-03T11:18:31.599Z,20.8
2022-10-03T11:48:31.536Z,20.7
2022-10-03T12:18:31.266Z,20.7
2022-10-03T12:48:31.570Z,20.6
2022-10-03T13:18:31.563Z,20.6
2022-10-03T13:48:31.545Z,20.6
2022-10-03T14:18:31.579Z,20.5
2022-10-03T14:48:31.539Z,20.5
2022-10-03T15:18:31.327Z,20.5
2022-10-03T15:48:31.560Z,20.5
2022-10-03T16:18:31.552Z,20.5
2022-10-03T16:48:31.569Z,20.5
2022-10-03T17:18:31.650Z,20.5
2022-10-03T17:48:31.542Z,20.6
2022-10-03T18:18:31.540Z,20.8
2022-10-03T18:48:31.601Z,20.8
2022-10-03T19:18:31.293Z,20.8
2022-10-03T19:48:31.553Z,20.9
2022-10-03T20:18:31.516Z,20.8
2022-10-03T20:48:31.549Z,20.8
2022-10-03T21:18:31.593Z,20.7
2022-10-03T21:48:31.539Z,20.6
2022-10-03T22:18:31.664Z,20.6
2022-10-03T22:48:31.590Z,20.5
2022-10-03T23:18:31.558Z,20.5
2022-10-03T23:48:31.516Z,20.4
